Airfield :
LOGIN :

Register | Disclaimer

   EN    FR    IT 

 










Legend :    VFR   Marginal VFR   IFR   Intensive IFR   Very Intensive IFR
Visi :
Ceiling :
>= 8 km
>= 3000ft
5 to 8 km
1000 to 3000 ft
1500m to 5 km
500 to 1000 ft
800 to 1500m
200 to 500 ft
< 800m
< 200 ft
Symbols :   Thunderstorms  Fog  Heavy snow  Heavy precipitations  Wind > 20 kt
SIGMETs :     Misc.  Thunderstorms  Icing  Turbulence  Mountain Waves  Volcanic Ashes






- Airport Elevation : 584 ft


LFPV - Villacoublay Vélizy

CURRENT METAR :
  • 310000Z AUTO 18004KT 140V200 9999 OVC032 14/09 Q1024 BECMG 1200 BR OVC002

EXPIRED METARs :
  • 302330Z AUTO 17004KT 9999 OVC032 13/10 Q1024 BECMG 1200 BR OVC002
  • 302300Z AUTO 18003KT 150V210 9999 OVC031 14/10 Q1024 NOSIG
  • 302230Z AUTO 17004KT 150V210 9999 OVC032 14/10 Q1024 NOSIG
  • 302200Z AUTO 18004KT 9999 OVC032 14/10 Q1024 NOSIG
  • 302130Z AUTO 19003KT 160V220 9999 OVC031 14/10 Q1025 NOSIG

TAF TAF LFPV
Valid from the 30 at 21:00 until the 31 at 21:00 UTC


302000Z 3021/3121 20005KT 9999 BKN030 TX16/3118Z TN08/3106Z
BECMG 3101/3103 1200 BR OVC002
PROB40
TEMPO 3104/3108 0600 FG VV///
BECMG 3110/3112 9999 NSW BKN010
BECMG 3113/3114 22010G20KT BKN030
TEMPO 3116/3121 4900 -RA BKN015



MET'MAP, your aeronautical weather chart ! - Copyright ORBIFLY December 2007 - Disclaimer

ORBIFLY MET'MAP TEAM :

Programming & Development : Alexandra Zaïnal
Concept & original design : Baudouin d'Aumeries
Assistance for programming : Marc-Olivier Méhu
Technical & hardware support : Manuel Goepfert

Contact : metmap@orbifly.com




SOURCES & CREDITS :

   NOAA